createdAt,value
2023-01-25T00:02:08.108Z,92987.16
2023-01-25T00:05:11.867Z,92981.78
2023-01-25T00:08:14.962Z,92985.75
2023-01-25T00:11:18.640Z,92990.44
2023-01-25T00:14:21.837Z,92985.47
2023-01-25T00:17:25.312Z,93000.75
2023-01-25T00:20:28.688Z,93006.00
2023-01-25T00:23:35.318Z,93008.63
2023-01-25T00:26:40.065Z,93005.38
2023-01-25T00:29:44.850Z,93003.97
2023-01-25T00:33:09.335Z,93011.22
2023-01-25T00:36:38.988Z,93006.28
2023-01-25T00:39:42.991Z,93015.22
2023-01-25T00:42:47.950Z,93017.72
2023-01-25T00:46:03.733Z,93018.34
2023-01-25T00:49:22.667Z,93020.78
2023-01-25T00:52:28.219Z,93026.06
2023-01-25T00:55:31.956Z,93029.34
2023-01-25T00:58:35.400Z,93030.44
2023-01-25T01:01:43.325Z,93027.41
2023-01-25T01:04:47.507Z,93028.00
2023-01-25T01:07:51.633Z,93040.75
2023-01-25T01:11:03.709Z,93036.09
2023-01-25T01:14:07.063Z,93046.16
2023-01-25T01:17:10.512Z,93044.19
2023-01-25T01:20:14.281Z,93032.88
2023-01-25T01:23:18.092Z,93045.56
2023-01-25T01:26:21.136Z,93042.75
2023-01-25T01:29:25.292Z,93057.13
2023-01-25T01:32:28.618Z,93049.78
2023-01-25T01:35:33.557Z,93060.44
2023-01-25T01:38:37.177Z,93053.06
2023-01-25T01:41:41.177Z,93048.66
2023-01-25T01:44:49.112Z,93052.69
2023-01-25T01:47:53.406Z,93051.38
2023-01-25T01:51:01.215Z,93059.78
2023-01-25T01:54:19.380Z,93055.25
2023-01-25T01:57:41.195Z,93056.47
2023-01-25T02:00:46.372Z,93052.19
2023-01-25T02:03:50.469Z,93049.63
2023-01-25T02:06:59.231Z,93060.25
2023-01-25T02:10:04.350Z,93054.34
2023-01-25T02:13:07.929Z,93065.41
2023-01-25T02:16:18.244Z,93064.41
2023-01-25T02:19:35.716Z,93067.50
2023-01-25T02:22:57.116Z,93058.91
2023-01-25T02:26:03.328Z,93069.53
2023-01-25T02:29:09.573Z,93066.00
2023-01-25T02:32:14.496Z,93076.25
2023-01-25T02:35:36.894Z,93065.03
2023-01-25T02:38:43.947Z,93068.81
2023-01-25T02:41:51.427Z,93058.09
2023-01-25T02:44:55.716Z,93063.69
2023-01-25T02:48:00.544Z,93059.06
2023-01-25T02:51:04.183Z,93057.75
2023-01-25T02:54:09.516Z,93058.25
2023-01-25T02:57:12.576Z,93048.94
2023-01-25T03:00:21.565Z,93051.41
2023-01-25T03:03:24.752Z,93051.16
2023-01-25T03:06:30.210Z,93047.13
2023-01-25T03:09:33.808Z,93040.09
2023-01-25T03:12:38.053Z,93037.56
2023-01-25T03:15:41.665Z,93030.69
2023-01-25T03:18:45.547Z,93026.53
2023-01-25T03:21:49.129Z,93027.97
2023-01-25T03:24:54.060Z,93027.41
2023-01-25T03:27:58.356Z,93032.75
2023-01-25T03:31:02.674Z,93031.59
2023-01-25T03:34:06.957Z,93029.06
2023-01-25T03:37:15.097Z,93031.81
2023-01-25T03:40:19.670Z,93030.41
2023-01-25T03:43:26.498Z,93027.09
2023-01-25T03:46:31.603Z,93024.56
2023-01-25T03:49:35.136Z,93021.59
2023-01-25T03:52:42.635Z,93018.94
2023-01-25T03:55:45.658Z,93013.31
2023-01-25T03:58:49.951Z,92999.91
2023-01-25T04:01:54.013Z,93007.03
2023-01-25T04:04:58.072Z,93001.47
2023-01-25T04:08:02.252Z,92991.81
2023-01-25T04:11:14.868Z,92991.25
2023-01-25T04:14:35.002Z,92999.69
2023-01-25T04:17:46.369Z,92996.59
2023-01-25T04:20:58.660Z,92991.53
2023-01-25T04:24:03.057Z,92989.31
2023-01-25T04:27:09.615Z,92976.28
2023-01-25T04:30:21.790Z,92982.56
2023-01-25T04:33:26.806Z,92969.19
2023-01-25T04:36:30.968Z,92969.53
2023-01-25T04:39:34.681Z,92976.69
2023-01-25T04:42:38.832Z,92967.19
2023-01-25T04:45:42.410Z,92967.06
2023-01-25T04:48:53.556Z,92960.16
2023-01-25T04:51:57.300Z,92961.91
2023-01-25T04:55:00.825Z,92962.34
2023-01-25T04:58:10.056Z,92958.44
2023-01-25T05:01:15.069Z,92958.97
2023-01-25T05:04:19.234Z,92951.13
2023-01-25T05:07:25.723Z,92957.44
2023-01-25T05:10:29.750Z,92952.22
2023-01-25T05:13:55.617Z,92949.81
2023-01-25T05:17:04.410Z,92952.63
2023-01-25T05:20:09.528Z,92953.84
2023-01-25T05:23:13.513Z,92950.16
2023-01-25T05:26:35.797Z,92944.44
2023-01-25T05:29:42.125Z,92941.63
2023-01-25T05:32:46.151Z,92942.25
2023-01-25T05:35:50.569Z,92941.34
2023-01-25T05:38:54.093Z,92934.34
2023-01-25T05:41:57.705Z,92943.06
2023-01-25T05:45:01.959Z,92934.03
2023-01-25T05:48:07.283Z,92937.38
2023-01-25T05:51:11.382Z,92926.72
2023-01-25T05:54:17.470Z,92932.69
2023-01-25T05:57:30.647Z,92926.88
2023-01-25T06:00:36.054Z,92925.03
2023-01-25T06:03:39.622Z,92924.69
2023-01-25T06:06:44.485Z,92914.50
2023-01-25T06:09:48.060Z,92923.25
2023-01-25T06:12:51.880Z,92938.75
2023-01-25T06:15:56.722Z,92943.94
2023-01-25T06:19:26.335Z,92949.31
2023-01-25T06:22:35.489Z,92943.81
2023-01-25T06:25:39.250Z,92936.25
2023-01-25T06:28:45.681Z,92936.50
2023-01-25T06:31:49.146Z,92951.81
2023-01-25T06:34:53.335Z,92949.75
2023-01-25T06:37:59.142Z,92935.28
2023-01-25T06:41:03.878Z,92937.16
2023-01-25T06:44:09.103Z,92955.56
2023-01-25T06:47:13.384Z,92965.25
2023-01-25T06:50:17.489Z,92975.81
2023-01-25T06:53:21.199Z,92963.44
2023-01-25T06:56:25.416Z,92952.22
2023-01-25T06:59:29.203Z,92945.22
2023-01-25T07:02:33.171Z,92947.50
2023-01-25T07:05:36.944Z,92961.75
2023-01-25T07:08:41.162Z,92973.72
2023-01-25T07:11:44.455Z,92973.13
2023-01-25T07:14:49.200Z,92978.22
2023-01-25T07:17:52.174Z,92970.09
2023-01-25T07:20:56.157Z,92961.06
2023-01-25T07:24:04.714Z,92958.47
2023-01-25T07:27:08.816Z,92972.63
2023-01-25T07:30:14.320Z,92978.22
2023-01-25T07:33:18.165Z,92971.03
2023-01-25T07:36:22.816Z,92974.34
2023-01-25T07:39:26.941Z,92975.50
2023-01-25T07:42:30.581Z,92975.56
2023-01-25T07:45:49.790Z,92983.22
2023-01-25T07:48:54.512Z,92978.31
2023-01-25T07:51:58.115Z,92973.06
2023-01-25T07:55:01.379Z,92977.09
2023-01-25T07:58:04.946Z,92967.56
2023-01-25T08:01:13.318Z,92980.16
2023-01-25T08:04:16.973Z,92992.50
2023-01-25T08:07:24.402Z,92990.88
2023-01-25T08:10:28.073Z,92994.34
2023-01-25T08:13:32.392Z,92980.91
2023-01-25T08:16:36.171Z,92976.00
2023-01-25T08:19:40.384Z,92977.34
2023-01-25T08:22:45.336Z,92982.75
2023-01-25T08:25:49.369Z,92969.84
2023-01-25T08:28:54.347Z,92980.16
2023-01-25T08:31:58.302Z,92968.16
2023-01-25T08:35:01.187Z,92968.41
2023-01-25T08:38:05.844Z,92967.28
2023-01-25T08:41:16.513Z,92977.34
2023-01-25T08:44:24.688Z,92968.94
2023-01-25T08:47:27.789Z,92974.13
2023-01-25T08:50:31.991Z,92974.22
2023-01-25T08:53:35.887Z,92983.03
2023-01-25T08:56:42.074Z,92983.94
2023-01-25T08:59:45.755Z,92974.47
2023-01-25T09:02:49.398Z,92976.78
2023-01-25T09:05:55.355Z,92984.97
2023-01-25T09:09:01.149Z,92990.94
2023-01-25T09:12:04.770Z,92987.81
2023-01-25T09:15:08.881Z,93002.69
2023-01-25T09:18:12.176Z,92999.28
2023-01-25T09:21:17.971Z,93000.16
2023-01-25T09:24:21.581Z,93012.53
2023-01-25T09:27:25.584Z,93001.63
2023-01-25T09:30:44.884Z,93008.13
2023-01-25T09:33:59.026Z,93006.19
2023-01-25T09:37:03.046Z,93001.38
2023-01-25T09:40:08.523Z,93001.06
2023-01-25T09:43:30.896Z,93001.69
2023-01-25T09:46:49.571Z,92996.59
2023-01-25T09:50:14.419Z,92996.84
2023-01-25T09:53:32.275Z,92996.31
2023-01-25T09:56:37.535Z,93009.03
2023-01-25T09:59:42.331Z,93007.97
2023-01-25T10:02:54.906Z,93009.44
2023-01-25T10:06:01.819Z,93017.41
2023-01-25T10:09:09.296Z,93014.47
2023-01-25T10:12:19.532Z,93005.84
2023-01-25T10:15:25.757Z,93012.59
2023-01-25T10:18:42.058Z,93015.81
2023-01-25T10:22:22.691Z,93018.06
2023-01-25T10:25:35.351Z,93018.06
2023-01-25T10:28:50.588Z,93023.44
2023-01-25T10:32:15.389Z,93017.81
2023-01-25T10:35:34.893Z,93023.44
2023-01-25T10:38:46.431Z,93013.03
2023-01-25T10:41:58.467Z,93017.41
2023-01-25T10:45:01.789Z,93024.06
2023-01-25T10:48:10.063Z,93026.44
2023-01-25T10:51:38.697Z,93025.84
2023-01-25T10:54:41.876Z,93022.53
2023-01-25T10:57:56.403Z,93024.53
2023-01-25T11:01:00.627Z,93021.94
2023-01-25T11:04:04.629Z,93034.53
2023-01-25T11:07:27.533Z,93031.66
2023-01-25T11:10:34.280Z,93036.72
2023-01-25T11:13:42.957Z,93050.81
2023-01-25T11:16:49.056Z,93048.19
2023-01-25T11:20:20.563Z,93047.81
2023-01-25T11:23:27.932Z,93056.72
2023-01-25T11:26:33.127Z,93055.06
2023-01-25T11:29:36.434Z,93056.09
2023-01-25T11:32:41.426Z,93060.47
2023-01-25T11:36:03.194Z,93059.97
2023-01-25T11:39:16.219Z,93062.13
2023-01-25T11:42:29.621Z,93068.34
2023-01-25T11:46:16.933Z,93069.38
2023-01-25T11:49:48.072Z,93074.03
2023-01-25T11:53:04.166Z,93073.88
2023-01-25T11:56:14.131Z,93075.59
2023-01-25T11:59:59.801Z,93064.06
2023-01-25T12:03:16.946Z,93068.97
2023-01-25T12:06:28.904Z,93059.13
2023-01-25T12:09:43.417Z,93058.16
2023-01-25T12:13:12.463Z,93057.16
2023-01-25T12:16:50.425Z,93062.78
2023-01-25T12:20:07.825Z,93063.75
2023-01-25T12:23:17.904Z,93076.84
2023-01-25T12:26:35.214Z,93065.72
2023-01-25T12:29:45.772Z,93069.94
2023-01-25T12:33:02.478Z,93063.91
2023-01-25T12:36:21.177Z,93070.94
2023-01-25T12:39:38.250Z,93058.25
2023-01-25T12:42:59.797Z,93070.63
2023-01-25T12:46:16.782Z,93074.81
2023-01-25T12:49:42.230Z,93077.19
2023-01-25T12:52:55.768Z,93072.56
2023-01-25T12:55:59.940Z,93064.94
2023-01-25T12:59:37.684Z,93081.69
2023-01-25T13:02:52.820Z,93074.09
2023-01-25T13:06:22.739Z,93081.75
2023-01-25T13:09:45.221Z,93088.34
2023-01-25T13:13:22.493Z,93096.63
2023-01-25T13:16:33.318Z,93102.72
2023-01-25T13:19:37.045Z,93092.97
2023-01-25T13:22:47.307Z,93104.16
2023-01-25T13:25:51.083Z,93111.59
2023-01-25T13:28:55.844Z,93113.69
2023-01-25T13:32:00.418Z,93112.06
2023-01-25T13:35:06.000Z,93104.63
2023-01-25T13:38:32.913Z,93112.16
2023-01-25T13:41:35.996Z,93112.06
2023-01-25T13:44:45.383Z,93105.97
2023-01-25T13:48:05.145Z,93116.91
2023-01-25T13:51:15.287Z,93118.03
2023-01-25T13:54:19.121Z,93119.44
2023-01-25T13:57:33.084Z,93121.00
2023-01-25T14:00:38.518Z,93123.19
2023-01-25T14:03:46.628Z,93132.84
2023-01-25T14:06:49.638Z,93123.94
2023-01-25T14:09:54.043Z,93143.63
2023-01-25T14:13:01.707Z,93148.50
2023-01-25T14:16:10.366Z,93158.47
2023-01-25T14:19:24.874Z,93162.00
2023-01-25T14:22:31.068Z,93154.44
2023-01-25T14:25:34.733Z,93146.31
2023-01-25T14:28:38.234Z,93151.66
2023-01-25T14:31:41.106Z,93147.72
2023-01-25T14:34:45.119Z,93143.78
2023-01-25T14:37:48.322Z,93147.53
2023-01-25T14:40:56.725Z,93149.63
2023-01-25T14:44:05.068Z,93152.75
2023-01-25T14:47:31.894Z,93145.06
2023-01-25T14:50:40.161Z,93155.50
2023-01-25T14:53:51.525Z,93147.50
2023-01-25T14:57:01.240Z,93149.53
2023-01-25T15:00:24.778Z,93152.88
2023-01-25T15:03:28.263Z,93152.34
2023-01-25T15:06:31.358Z,93157.50
2023-01-25T15:09:45.754Z,93157.50
2023-01-25T15:13:15.599Z,93159.28
2023-01-25T15:16:18.887Z,93152.44
2023-01-25T15:19:23.909Z,93152.22
2023-01-25T15:22:27.869Z,93148.41
2023-01-25T15:25:30.944Z,93143.59
2023-01-25T15:28:35.021Z,93151.72
2023-01-25T15:31:38.810Z,93162.22
2023-01-25T15:34:42.969Z,93148.44
2023-01-25T15:37:49.596Z,93152.84
2023-01-25T15:40:53.549Z,93155.31
2023-01-25T15:43:57.850Z,93153.19
2023-01-25T15:47:02.159Z,93147.84
2023-01-25T15:50:06.895Z,93149.09
2023-01-25T15:53:19.759Z,93163.59
2023-01-25T15:56:28.617Z,93152.97
2023-01-25T15:59:32.557Z,93169.53
2023-01-25T16:02:36.379Z,93159.41
2023-01-25T16:05:40.181Z,93157.53
2023-01-25T16:08:44.922Z,93163.16
2023-01-25T16:11:51.641Z,93156.88
2023-01-25T16:14:55.059Z,93156.50
2023-01-25T16:17:58.077Z,93163.41
2023-01-25T16:21:01.081Z,93157.53
2023-01-25T16:24:04.981Z,93154.00
2023-01-25T16:27:27.496Z,93163.19
2023-01-25T16:30:33.154Z,93157.78
2023-01-25T16:33:37.193Z,93152.88
2023-01-25T16:36:41.026Z,93155.59
2023-01-25T16:39:46.522Z,93159.47
2023-01-25T16:42:50.105Z,93167.25
2023-01-25T16:45:59.583Z,93166.41
2023-01-25T16:49:05.286Z,93156.72
2023-01-25T16:52:11.529Z,93167.25
2023-01-25T16:55:14.814Z,93181.44
2023-01-25T16:58:17.895Z,93180.47
2023-01-25T17:01:25.767Z,93193.75
2023-01-25T17:04:29.809Z,93196.91
2023-01-25T17:07:33.754Z,93195.41
2023-01-25T17:10:38.808Z,93192.09
2023-01-25T17:13:42.472Z,93196.84
2023-01-25T17:16:48.863Z,93196.75
2023-01-25T17:19:55.106Z,93196.75
2023-01-25T17:22:59.146Z,93185.38
2023-01-25T17:26:06.972Z,93194.44
2023-01-25T17:29:10.944Z,93193.66
2023-01-25T17:32:14.530Z,93202.69
2023-01-25T17:35:17.599Z,93203.47
2023-01-25T17:38:27.116Z,93204.78
2023-01-25T17:41:31.124Z,93207.19
2023-01-25T17:44:34.723Z,93217.09
2023-01-25T17:47:38.873Z,93222.50
2023-01-25T17:50:45.259Z,93228.13
2023-01-25T17:53:49.219Z,93233.13
2023-01-25T17:56:52.232Z,93234.13
2023-01-25T17:59:55.238Z,93236.88
2023-01-25T18:02:59.344Z,93234.03
2023-01-25T18:06:08.461Z,93248.53
2023-01-25T18:09:11.578Z,93240.59
2023-01-25T18:12:14.684Z,93242.16
2023-01-25T18:15:19.268Z,93243.84
2023-01-25T18:18:24.231Z,93249.63
2023-01-25T18:21:30.951Z,93247.31
2023-01-25T18:24:36.807Z,93240.00
2023-01-25T18:27:40.764Z,93245.00
2023-01-25T18:30:53.375Z,93240.28
2023-01-25T18:33:58.673Z,93243.59
2023-01-25T18:37:02.750Z,93242.00
2023-01-25T18:40:06.431Z,93236.78
2023-01-25T18:43:12.386Z,93239.94
2023-01-25T18:46:15.565Z,93243.81
2023-01-25T18:49:18.618Z,93246.50
2023-01-25T18:52:23.416Z,93247.47
2023-01-25T18:55:28.569Z,93249.78
2023-01-25T18:58:36.863Z,93251.47
2023-01-25T19:01:40.498Z,93263.13
2023-01-25T19:04:44.027Z,93259.88
2023-01-25T19:07:47.061Z,93256.63
2023-01-25T19:10:50.683Z,93264.69
2023-01-25T19:13:54.461Z,93260.41
2023-01-25T19:16:57.571Z,93266.22
2023-01-25T19:20:02.739Z,93267.22
2023-01-25T19:23:05.761Z,93266.09
2023-01-25T19:26:13.311Z,93275.31
2023-01-25T19:29:17.132Z,93277.31
2023-01-25T19:32:20.068Z,93288.66
2023-01-25T19:35:23.951Z,93282.28
2023-01-25T19:38:27.583Z,93288.91
2023-01-25T19:41:32.084Z,93290.63
2023-01-25T19:44:36.088Z,93283.41
2023-01-25T19:47:39.829Z,93290.94
2023-01-25T19:50:43.452Z,93289.44
2023-01-25T19:53:49.269Z,93296.09
2023-01-25T19:56:53.001Z,93286.25
2023-01-25T19:59:56.801Z,93293.25
2023-01-25T20:03:14.959Z,93298.19
2023-01-25T20:06:21.105Z,93301.38
2023-01-25T20:09:29.165Z,93306.03
2023-01-25T20:12:32.526Z,93309.56
2023-01-25T20:15:36.790Z,93311.94
2023-01-25T20:18:40.567Z,93309.25
2023-01-25T20:21:44.397Z,93312.88
2023-01-25T20:24:48.442Z,93319.25
2023-01-25T20:27:52.397Z,93317.63
2023-01-25T20:30:56.357Z,93311.13
2023-01-25T20:34:02.330Z,93317.91
2023-01-25T20:37:05.544Z,93314.13
2023-01-25T20:40:09.164Z,93313.19
2023-01-25T20:43:12.185Z,93313.53
2023-01-25T20:46:17.712Z,93315.22
2023-01-25T20:49:21.035Z,93316.81
2023-01-25T20:52:24.336Z,93322.59
2023-01-25T20:55:28.008Z,93328.31
2023-01-25T20:58:33.112Z,93320.06
2023-01-25T21:01:39.113Z,93314.25
2023-01-25T21:04:42.121Z,93323.94
2023-01-25T21:07:45.292Z,93317.13
2023-01-25T21:10:50.771Z,93327.31
2023-01-25T21:13:54.841Z,93322.69
2023-01-25T21:17:03.474Z,93322.09
2023-01-25T21:20:08.176Z,93326.25
2023-01-25T21:23:11.220Z,93324.88
2023-01-25T21:26:23.258Z,93333.78
2023-01-25T21:29:27.374Z,93340.28
2023-01-25T21:32:30.621Z,93340.13
2023-01-25T21:35:34.672Z,93338.84
2023-01-25T21:38:40.285Z,93337.56
2023-01-25T21:41:46.192Z,93330.25
2023-01-25T21:45:08.113Z,93344.97
2023-01-25T21:48:12.645Z,93347.06
2023-01-25T21:51:34.922Z,93340.13
2023-01-25T21:54:39.646Z,93343.22
2023-01-25T21:57:47.537Z,93345.41
2023-01-25T22:00:51.221Z,93350.34
2023-01-25T22:03:57.959Z,93350.06
2023-01-25T22:07:02.076Z,93362.56
2023-01-25T22:10:07.159Z,93366.81
2023-01-25T22:13:13.108Z,93362.34
2023-01-25T22:16:16.375Z,93369.59
2023-01-25T22:19:20.950Z,93374.44
2023-01-25T22:22:24.422Z,93383.09
2023-01-25T22:25:28.435Z,93386.53
2023-01-25T22:28:50.066Z,93395.28
2023-01-25T22:31:54.159Z,93394.25
2023-01-25T22:34:57.254Z,93391.59
2023-01-25T22:38:00.723Z,93395.47
2023-01-25T22:41:17.903Z,93391.44
2023-01-25T22:44:21.018Z,93397.63
2023-01-25T22:47:24.618Z,93391.13
2023-01-25T22:50:28.480Z,93391.28
2023-01-25T22:53:35.446Z,93396.59
2023-01-25T22:56:40.111Z,93397.13
2023-01-25T22:59:43.754Z,93395.63
2023-01-25T23:02:47.382Z,93400.63
2023-01-25T23:05:58.563Z,93400.28
2023-01-25T23:09:07.010Z,93399.88
2023-01-25T23:12:12.189Z,93410.84
2023-01-25T23:15:18.815Z,93415.03
2023-01-25T23:18:41.385Z,93417.78
2023-01-25T23:21:45.522Z,93425.50
2023-01-25T23:24:49.225Z,93422.28
2023-01-25T23:27:52.943Z,93428.78
2023-01-25T23:31:16.749Z,93437.34
2023-01-25T23:34:20.480Z,93436.41
2023-01-25T23:37:23.862Z,93444.63
2023-01-25T23:40:27.305Z,93443.19
2023-01-25T23:43:30.927Z,93443.47
2023-01-25T23:46:34.380Z,93439.25
2023-01-25T23:49:37.509Z,93442.31
2023-01-25T23:52:41.591Z,93448.44
2023-01-25T23:55:59.831Z,93463.56
2023-01-25T23:59:03.657Z,93462.38
